Roberts, MT

8:13 PM MST on November 26, 2014 (GMT -0700)
Billings Logan International | Change Station
CLOSE
Current Station
Airport
Location: Billings,
Elevation: 3570 ft
Nearby Weather Stations

Elev 3570 ft 45.81 °N, 108.54 °W | Updated 20 minutes ago

Overcast
Overcast
29 °F
Feels Like 24 °F
N
5
Wind Variable Wind from SSE

Today
High -- | Low -- °F
--% Chance of Precip.
Yesterday
High -- | Low -- °F
Precip. -- in
7:29 AM 4:37 PM
Waxing Crescent, 25% visible
Pressure 30.26 in
Visibility 10.0 miles
Clouds Overcast 400 ft
Windchill 24 °F
Dew Point 28 °F
Humidity 96%
Rainfall 0.31 in
Snow Depth Not available.
UV 0 out of 12
Pollen .10 out of 12
Air Quality Not available.
Flu Activity Not available.
METAR KBIL 270253Z 15004KT 10SM OVC004 M02/M02 A3015 RMK AO2 SLP245 60000 T10171022 58006

More Conditions Fewer Conditions

Pressure 30.26 in
Visibility 10.0 miles
Clouds Overcast 400 ft
Windchill 24 °F
Dew Point 28 °F
Humidity 96%
Rainfall 0.31 in
Snow Depth Not available.
UV 0 out of 12
Pollen .10 out of 12
Air Quality Not available.
Flu Activity Not available.
METAR KBIL 270253Z 15004KT 10SM OVC004 M02/M02 A3015 RMK AO2 SLP245 60000 T10171022 58006

More Conditions Fewer Conditions

10-Day Weather Forecast

Almanac

Astronomy

Nov. 26, 2014 Rise Set
Actual Time
Civil Twilight
Nautical Twilight
Astronomical Twilight
Moon
Length of Visible Light
Length of Day
Tomorrow will be .
, % of the Moon is Illuminated

Today's Extremes

State Highs State Lows

Community

WunderPhotos

Upload Photos

1,773,949 photos uploaded!

WunderBlogs® & News

Nearby

Air Quality

  Air Quality AQ Index Pollutant
Not available.

Snow Depth

Station Depth Elevation

Earthquake Activity

City Distance Mag. Time & Date
Minimum magnitude displayed is 2.5.

Coastal Water Temperatures

Place Temperature

Nearby Weather Stations